sensor_id;sensor_type;location;lat;lon;timestamp;P1;durP1;ratioP1;P2;durP2;ratioP2
65583;SDS011;62116;43.582;1.470;2023-05-07T00:00:16;8.93;;;3.47;;
65583;SDS011;62116;43.582;1.470;2023-05-07T00:02:43;6.15;;;3.53;;
65583;SDS011;62116;43.582;1.470;2023-05-07T00:05:09;7.18;;;3.53;;
65583;SDS011;62116;43.582;1.470;2023-05-07T00:07:35;7.78;;;3.50;;
65583;SDS011;62116;43.582;1.470;2023-05-07T00:10:01;9.73;;;3.70;;
65583;SDS011;62116;43.582;1.470;2023-05-07T00:12:27;5.55;;;3.50;;
65583;SDS011;62116;43.582;1.470;2023-05-07T00:14:52;9.00;;;3.55;;
65583;SDS011;62116;43.582;1.470;2023-05-07T00:17:18;7.80;;;3.22;;
65583;SDS011;62116;43.582;1.470;2023-05-07T00:19:43;7.85;;;3.65;;
65583;SDS011;62116;43.582;1.470;2023-05-07T00:22:08;7.43;;;3.42;;
65583;SDS011;62116;43.582;1.470;2023-05-07T00:24:34;9.43;;;3.35;;
65583;SDS011;62116;43.582;1.470;2023-05-07T00:26:59;9.25;;;3.28;;
65583;SDS011;62116;43.582;1.470;2023-05-07T00:29:25;7.47;;;3.60;;
65583;SDS011;62116;43.582;1.470;2023-05-07T00:31:50;9.15;;;3.25;;
65583;SDS011;62116;43.582;1.470;2023-05-07T00:34:16;9.70;;;3.38;;
65583;SDS011;62116;43.582;1.470;2023-05-07T00:36:41;7.43;;;3.40;;
65583;SDS011;62116;43.582;1.470;2023-05-07T00:39:07;8.88;;;3.30;;
65583;SDS011;62116;43.582;1.470;2023-05-07T00:41:32;8.88;;;3.28;;
65583;SDS011;62116;43.582;1.470;2023-05-07T00:43:57;8.50;;;3.33;;
65583;SDS011;62116;43.582;1.470;2023-05-07T00:46:23;7.80;;;3.50;;
65583;SDS011;62116;43.582;1.470;2023-05-07T00:48:52;10.57;;;3.85;;
65583;SDS011;62116;43.582;1.470;2023-05-07T00:51:18;9.00;;;3.40;;
65583;SDS011;62116;43.582;1.470;2023-05-07T00:53:44;8.73;;;3.50;;
65583;SDS011;62116;43.582;1.470;2023-05-07T00:56:11;9.90;;;3.42;;
65583;SDS011;62116;43.582;1.470;2023-05-07T00:58:37;9.10;;;3.78;;
65583;SDS011;62116;43.582;1.470;2023-05-07T01:01:03;9.38;;;3.30;;
65583;SDS011;62116;43.582;1.470;2023-05-07T01:03:28;10.95;;;3.47;;
65583;SDS011;62116;43.582;1.470;2023-05-07T01:05:54;9.60;;;3.50;;
65583;SDS011;62116;43.582;1.470;2023-05-07T01:08:22;9.52;;;3.40;;
65583;SDS011;62116;43.582;1.470;2023-05-07T01:10:49;10.20;;;3.78;;
65583;SDS011;62116;43.582;1.470;2023-05-07T01:13:16;8.50;;;3.20;;
65583;SDS011;62116;43.582;1.470;2023-05-07T01:15:43;9.82;;;3.33;;
65583;SDS011;62116;43.582;1.470;2023-05-07T01:18:08;6.38;;;2.90;;
65583;SDS011;62116;43.582;1.470;2023-05-07T01:20:34;8.13;;;3.40;;
65583;SDS011;62116;43.582;1.470;2023-05-07T01:22:59;9.98;;;3.33;;
65583;SDS011;62116;43.582;1.470;2023-05-07T01:25:26;9.63;;;3.35;;
65583;SDS011;62116;43.582;1.470;2023-05-07T01:27:52;13.25;;;3.50;;
65583;SDS011;62116;43.582;1.470;2023-05-07T01:30:17;7.35;;;2.88;;
65583;SDS011;62116;43.582;1.470;2023-05-07T01:33:08;14.18;;;3.00;;
65583;SDS011;62116;43.582;1.470;2023-05-07T01:35:37;10.73;;;2.78;;
65583;SDS011;62116;43.582;1.470;2023-05-07T01:38:05;9.85;;;3.03;;
65583;SDS011;62116;43.582;1.470;2023-05-07T01:40:32;10.13;;;2.90;;
65583;SDS011;62116;43.582;1.470;2023-05-07T01:42:59;10.40;;;3.30;;
65583;SDS011;62116;43.582;1.470;2023-05-07T01:45:25;7.82;;;2.80;;
65583;SDS011;62116;43.582;1.470;2023-05-07T01:47:50;13.40;;;3.30;;
65583;SDS011;62116;43.582;1.470;2023-05-07T01:50:17;8.98;;;2.75;;
65583;SDS011;62116;43.582;1.470;2023-05-07T01:52:44;9.98;;;2.72;;
65583;SDS011;62116;43.582;1.470;2023-05-07T01:55:09;8.88;;;2.40;;
65583;SDS011;62116;43.582;1.470;2023-05-07T01:57:35;9.68;;;2.63;;
65583;SDS011;62116;43.582;1.470;2023-05-07T02:00:00;12.45;;;2.80;;
65583;SDS011;62116;43.582;1.470;2023-05-07T02:02:31;8.15;;;2.30;;
65583;SDS011;62116;43.582;1.470;2023-05-07T02:04:56;7.93;;;2.50;;
65583;SDS011;62116;43.582;1.470;2023-05-07T02:07:22;9.43;;;2.63;;
65583;SDS011;62116;43.582;1.470;2023-05-07T02:09:47;8.88;;;2.45;;
65583;SDS011;62116;43.582;1.470;2023-05-07T02:12:12;10.40;;;2.50;;
65583;SDS011;62116;43.582;1.470;2023-05-07T02:14:38;10.65;;;2.47;;
65583;SDS011;62116;43.582;1.470;2023-05-07T02:17:03;12.48;;;2.50;;
65583;SDS011;62116;43.582;1.470;2023-05-07T02:19:29;7.95;;;2.35;;
65583;SDS011;62116;43.582;1.470;2023-05-07T02:21:54;8.43;;;2.60;;
65583;SDS011;62116;43.582;1.470;2023-05-07T02:24:20;7.57;;;2.20;;
65583;SDS011;62116;43.582;1.470;2023-05-07T02:26:45;6.38;;;2.25;;
65583;SDS011;62116;43.582;1.470;2023-05-07T02:29:11;6.55;;;2.30;;
65583;SDS011;62116;43.582;1.470;2023-05-07T02:31:36;10.40;;;2.40;;
65583;SDS011;62116;43.582;1.470;2023-05-07T02:34:02;7.00;;;2.30;;
65583;SDS011;62116;43.582;1.470;2023-05-07T02:36:27;8.27;;;2.65;;
65583;SDS011;62116;43.582;1.470;2023-05-07T02:38:53;8.55;;;2.50;;
65583;SDS011;62116;43.582;1.470;2023-05-07T02:41:18;13.23;;;2.67;;
65583;SDS011;62116;43.582;1.470;2023-05-07T02:43:45;8.30;;;2.30;;
65583;SDS011;62116;43.582;1.470;2023-05-07T02:46:11;10.27;;;2.30;;
65583;SDS011;62116;43.582;1.470;2023-05-07T02:48:36;9.52;;;1.95;;
65583;SDS011;62116;43.582;1.470;2023-05-07T02:51:02;11.52;;;2.60;;
65583;SDS011;62116;43.582;1.470;2023-05-07T02:53:28;10.95;;;2.13;;
65583;SDS011;62116;43.582;1.470;2023-05-07T02:55:57;9.48;;;2.40;;
65583;SDS011;62116;43.582;1.470;2023-05-07T02:58:24;6.37;;;2.13;;
65583;SDS011;62116;43.582;1.470;2023-05-07T03:00:50;7.93;;;2.30;;
65583;SDS011;62116;43.582;1.470;2023-05-07T03:03:15;11.05;;;2.40;;
65583;SDS011;62116;43.582;1.470;2023-05-07T03:05:42;12.43;;;2.50;;
65583;SDS011;62116;43.582;1.470;2023-05-07T03:08:07;8.23;;;2.30;;
65583;SDS011;62116;43.582;1.470;2023-05-07T03:10:33;7.93;;;2.10;;
65583;SDS011;62116;43.582;1.470;2023-05-07T03:12:59;12.35;;;2.50;;
65583;SDS011;62116;43.582;1.470;2023-05-07T03:15:24;8.05;;;2.25;;
65583;SDS011;62116;43.582;1.470;2023-05-07T03:17:50;11.60;;;2.50;;
65583;SDS011;62116;43.582;1.470;2023-05-07T03:20:15;8.27;;;2.30;;
65583;SDS011;62116;43.582;1.470;2023-05-07T03:22:41;9.43;;;2.67;;
65583;SDS011;62116;43.582;1.470;2023-05-07T03:25:06;10.65;;;2.40;;
65583;SDS011;62116;43.582;1.470;2023-05-07T03:27:32;7.70;;;2.10;;
65583;SDS011;62116;43.582;1.470;2023-05-07T03:29:58;7.65;;;2.15;;
65583;SDS011;62116;43.582;1.470;2023-05-07T03:32:23;9.60;;;2.55;;
65583;SDS011;62116;43.582;1.470;2023-05-07T03:34:48;12.23;;;2.50;;
65583;SDS011;62116;43.582;1.470;2023-05-07T03:37:14;9.88;;;2.47;;
65583;SDS011;62116;43.582;1.470;2023-05-07T03:39:40;10.40;;;2.80;;
65583;SDS011;62116;43.582;1.470;2023-05-07T03:42:05;8.20;;;2.50;;
65583;SDS011;62116;43.582;1.470;2023-05-07T03:44:31;6.95;;;2.30;;
65583;SDS011;62116;43.582;1.470;2023-05-07T03:46:56;10.25;;;2.28;;
65583;SDS011;62116;43.582;1.470;2023-05-07T03:49:21;9.90;;;2.40;;
65583;SDS011;62116;43.582;1.470;2023-05-07T03:51:47;13.80;;;2.78;;
65583;SDS011;62116;43.582;1.470;2023-05-07T03:54:15;8.27;;;2.72;;
65583;SDS011;62116;43.582;1.470;2023-05-07T03:56:41;9.60;;;2.33;;
65583;SDS011;62116;43.582;1.470;2023-05-07T03:59:06;11.13;;;2.50;;
65583;SDS011;62116;43.582;1.470;2023-05-07T04:01:31;10.18;;;2.55;;
65583;SDS011;62116;43.582;1.470;2023-05-07T04:03:58;11.13;;;2.60;;
65583;SDS011;62116;43.582;1.470;2023-05-07T04:06:23;13.00;;;2.58;;
65583;SDS011;62116;43.582;1.470;2023-05-07T04:08:49;9.05;;;2.40;;
65583;SDS011;62116;43.582;1.470;2023-05-07T04:11:14;7.57;;;2.20;;
65583;SDS011;62116;43.582;1.470;2023-05-07T04:13:40;9.43;;;2.63;;
65583;SDS011;62116;43.582;1.470;2023-05-07T04:16:05;11.05;;;2.65;;
65583;SDS011;62116;43.582;1.470;2023-05-07T04:18:31;13.65;;;3.00;;
65583;SDS011;62116;43.582;1.470;2023-05-07T04:20:57;10.88;;;2.83;;
65583;SDS011;62116;43.582;1.470;2023-05-07T04:23:22;9.13;;;2.35;;
65583;SDS011;62116;43.582;1.470;2023-05-07T04:25:47;9.07;;;2.30;;
65583;SDS011;62116;43.582;1.470;2023-05-07T04:28:13;12.75;;;2.58;;
65583;SDS011;62116;43.582;1.470;2023-05-07T04:30:39;8.80;;;2.35;;
65583;SDS011;62116;43.582;1.470;2023-05-07T04:33:04;10.02;;;2.75;;
65583;SDS011;62116;43.582;1.470;2023-05-07T04:35:31;10.40;;;2.38;;
65583;SDS011;62116;43.582;1.470;2023-05-07T04:37:57;9.05;;;2.47;;
65583;SDS011;62116;43.582;1.470;2023-05-07T04:40:22;10.30;;;2.53;;
65583;SDS011;62116;43.582;1.470;2023-05-07T04:42:48;8.50;;;2.35;;
65583;SDS011;62116;43.582;1.470;2023-05-07T04:45:13;10.98;;;2.53;;
65583;SDS011;62116;43.582;1.470;2023-05-07T04:47:39;8.43;;;2.28;;
65583;SDS011;62116;43.582;1.470;2023-05-07T04:50:05;13.00;;;2.30;;
65583;SDS011;62116;43.582;1.470;2023-05-07T04:52:34;7.70;;;2.20;;
65583;SDS011;62116;43.582;1.470;2023-05-07T04:55:00;9.32;;;2.25;;
65583;SDS011;62116;43.582;1.470;2023-05-07T04:57:26;11.88;;;2.60;;
65583;SDS011;62116;43.582;1.470;2023-05-07T04:59:52;10.70;;;2.13;;
65583;SDS011;62116;43.582;1.470;2023-05-07T05:02:18;10.88;;;2.33;;
65583;SDS011;62116;43.582;1.470;2023-05-07T05:04:43;9.73;;;2.28;;
65583;SDS011;62116;43.582;1.470;2023-05-07T05:07:09;12.05;;;2.85;;
65583;SDS011;62116;43.582;1.470;2023-05-07T05:09:35;9.75;;;2.42;;
65583;SDS011;62116;43.582;1.470;2023-05-07T05:12:00;12.27;;;2.50;;
65583;SDS011;62116;43.582;1.470;2023-05-07T05:14:26;8.68;;;2.58;;
65583;SDS011;62116;43.582;1.470;2023-05-07T05:16:51;11.10;;;2.50;;
65583;SDS011;62116;43.582;1.470;2023-05-07T05:19:16;15.63;;;2.50;;
65583;SDS011;62116;43.582;1.470;2023-05-07T05:21:42;7.55;;;2.47;;
65583;SDS011;62116;43.582;1.470;2023-05-07T05:24:07;14.63;;;2.90;;
65583;SDS011;62116;43.582;1.470;2023-05-07T05:26:33;14.98;;;2.70;;
65583;SDS011;62116;43.582;1.470;2023-05-07T05:28:58;12.07;;;2.15;;
65583;SDS011;62116;43.582;1.470;2023-05-07T05:31:24;8.35;;;2.17;;
65583;SDS011;62116;43.582;1.470;2023-05-07T05:33:49;10.57;;;2.47;;
65583;SDS011;62116;43.582;1.470;2023-05-07T05:36:15;12.95;;;2.85;;
65583;SDS011;62116;43.582;1.470;2023-05-07T05:38:40;11.10;;;2.47;;
65583;SDS011;62116;43.582;1.470;2023-05-07T05:41:05;11.30;;;2.78;;
65583;SDS011;62116;43.582;1.470;2023-05-07T05:43:31;10.70;;;2.35;;
65583;SDS011;62116;43.582;1.470;2023-05-07T05:45:56;10.00;;;2.55;;
65583;SDS011;62116;43.582;1.470;2023-05-07T05:48:22;10.32;;;2.40;;
65583;SDS011;62116;43.582;1.470;2023-05-07T05:50:48;13.32;;;2.90;;
65583;SDS011;62116;43.582;1.470;2023-05-07T05:53:14;11.23;;;2.60;;
65583;SDS011;62116;43.582;1.470;2023-05-07T05:55:39;13.57;;;2.70;;
65583;SDS011;62116;43.582;1.470;2023-05-07T05:58:05;11.70;;;3.20;;
65583;SDS011;62116;43.582;1.470;2023-05-07T06:00:30;14.05;;;2.40;;
65583;SDS011;62116;43.582;1.470;2023-05-07T06:02:56;13.10;;;2.50;;
65583;SDS011;62116;43.582;1.470;2023-05-07T06:05:22;13.38;;;2.75;;
65583;SDS011;62116;43.582;1.470;2023-05-07T06:07:47;13.05;;;2.80;;
65583;SDS011;62116;43.582;1.470;2023-05-07T06:10:12;10.75;;;2.60;;
65583;SDS011;62116;43.582;1.470;2023-05-07T06:12:38;10.88;;;2.67;;
65583;SDS011;62116;43.582;1.470;2023-05-07T06:15:03;14.38;;;2.97;;
65583;SDS011;62116;43.582;1.470;2023-05-07T06:17:29;13.32;;;2.90;;
65583;SDS011;62116;43.582;1.470;2023-05-07T06:19:55;7.68;;;1.92;;
65583;SDS011;62116;43.582;1.470;2023-05-07T06:22:20;7.60;;;2.35;;
65583;SDS011;62116;43.582;1.470;2023-05-07T06:24:46;15.13;;;2.78;;
65583;SDS011;62116;43.582;1.470;2023-05-07T06:27:12;11.07;;;2.63;;
65583;SDS011;62116;43.582;1.470;2023-05-07T06:29:37;11.38;;;2.90;;
65583;SDS011;62116;43.582;1.470;2023-05-07T06:32:09;8.27;;;2.35;;
65583;SDS011;62116;43.582;1.470;2023-05-07T06:34:36;11.70;;;2.55;;
65583;SDS011;62116;43.582;1.470;2023-05-07T06:37:02;12.40;;;2.72;;
65583;SDS011;62116;43.582;1.470;2023-05-07T06:39:27;13.52;;;2.80;;
65583;SDS011;62116;43.582;1.470;2023-05-07T06:41:53;10.85;;;2.63;;
65583;SDS011;62116;43.582;1.470;2023-05-07T06:44:18;12.27;;;2.60;;
65583;SDS011;62116;43.582;1.470;2023-05-07T06:46:44;9.13;;;2.60;;
65583;SDS011;62116;43.582;1.470;2023-05-07T06:49:10;8.38;;;2.30;;
65583;SDS011;62116;43.582;1.470;2023-05-07T06:51:36;9.52;;;2.75;;
65583;SDS011;62116;43.582;1.470;2023-05-07T06:54:01;10.05;;;2.78;;
65583;SDS011;62116;43.582;1.470;2023-05-07T06:56:27;11.65;;;3.10;;
65583;SDS011;62116;43.582;1.470;2023-05-07T06:58:52;9.23;;;2.50;;
65583;SDS011;62116;43.582;1.470;2023-05-07T07:01:17;13.32;;;2.72;;
65583;SDS011;62116;43.582;1.470;2023-05-07T07:03:43;10.18;;;2.53;;
65583;SDS011;62116;43.582;1.470;2023-05-07T07:06:08;14.10;;;2.97;;
65583;SDS011;62116;43.582;1.470;2023-05-07T07:08:34;12.55;;;2.83;;
65583;SDS011;62116;43.582;1.470;2023-05-07T07:10:59;12.43;;;2.72;;
65583;SDS011;62116;43.582;1.470;2023-05-07T07:13:25;13.43;;;2.80;;
65583;SDS011;62116;43.582;1.470;2023-05-07T07:15:51;13.23;;;2.67;;
65583;SDS011;62116;43.582;1.470;2023-05-07T07:18:18;10.98;;;3.22;;
65583;SDS011;62116;43.582;1.470;2023-05-07T07:20:43;11.13;;;2.97;;
65583;SDS011;62116;43.582;1.470;2023-05-07T07:23:09;13.07;;;2.90;;
65583;SDS011;62116;43.582;1.470;2023-05-07T07:25:35;8.98;;;2.95;;
65583;SDS011;62116;43.582;1.470;2023-05-07T07:28:00;12.00;;;2.80;;
65583;SDS011;62116;43.582;1.470;2023-05-07T07:30:26;10.40;;;2.78;;
65583;SDS011;62116;43.582;1.470;2023-05-07T07:32:51;8.25;;;2.70;;
65583;SDS011;62116;43.582;1.470;2023-05-07T07:35:17;10.60;;;2.97;;
65583;SDS011;62116;43.582;1.470;2023-05-07T07:37:43;16.05;;;2.80;;
65583;SDS011;62116;43.582;1.470;2023-05-07T07:40:08;12.75;;;2.67;;
65583;SDS011;62116;43.582;1.470;2023-05-07T07:42:34;13.80;;;3.13;;
65583;SDS011;62116;43.582;1.470;2023-05-07T07:45:00;11.80;;;2.70;;
65583;SDS011;62116;43.582;1.470;2023-05-07T07:47:25;12.20;;;2.80;;
65583;SDS011;62116;43.582;1.470;2023-05-07T07:49:50;11.30;;;2.58;;
65583;SDS011;62116;43.582;1.470;2023-05-07T07:52:16;11.50;;;2.55;;
65583;SDS011;62116;43.582;1.470;2023-05-07T07:54:41;12.00;;;2.70;;
65583;SDS011;62116;43.582;1.470;2023-05-07T07:57:07;10.82;;;2.35;;
65583;SDS011;62116;43.582;1.470;2023-05-07T07:59:33;9.80;;;2.75;;
65583;SDS011;62116;43.582;1.470;2023-05-07T08:01:58;11.05;;;2.60;;
65583;SDS011;62116;43.582;1.470;2023-05-07T08:04:24;11.75;;;2.60;;
65583;SDS011;62116;43.582;1.470;2023-05-07T08:06:49;8.93;;;2.67;;
65583;SDS011;62116;43.582;1.470;2023-05-07T08:09:15;10.23;;;2.35;;
65583;SDS011;62116;43.582;1.470;2023-05-07T08:11:40;7.22;;;2.30;;
65583;SDS011;62116;43.582;1.470;2023-05-07T08:14:06;12.55;;;3.45;;
65583;SDS011;62116;43.582;1.470;2023-05-07T08:16:31;13.07;;;3.38;;
65583;SDS011;62116;43.582;1.470;2023-05-07T08:18:56;11.75;;;3.00;;
65583;SDS011;62116;43.582;1.470;2023-05-07T08:21:22;11.02;;;2.60;;
65583;SDS011;62116;43.582;1.470;2023-05-07T08:23:48;10.77;;;3.05;;
65583;SDS011;62116;43.582;1.470;2023-05-07T08:26:13;10.88;;;2.70;;
65583;SDS011;62116;43.582;1.470;2023-05-07T08:28:39;10.77;;;2.63;;
65583;SDS011;62116;43.582;1.470;2023-05-07T08:31:04;9.30;;;2.60;;
65583;SDS011;62116;43.582;1.470;2023-05-07T08:33:30;11.55;;;2.70;;
65583;SDS011;62116;43.582;1.470;2023-05-07T08:35:56;11.57;;;2.72;;
65583;SDS011;62116;43.582;1.470;2023-05-07T08:38:21;10.40;;;2.50;;
65583;SDS011;62116;43.582;1.470;2023-05-07T08:40:46;12.95;;;2.90;;
65583;SDS011;62116;43.582;1.470;2023-05-07T08:43:13;10.02;;;2.50;;
65583;SDS011;62116;43.582;1.470;2023-05-07T08:45:40;10.57;;;2.78;;
65583;SDS011;62116;43.582;1.470;2023-05-07T08:48:08;11.57;;;2.67;;
65583;SDS011;62116;43.582;1.470;2023-05-07T08:50:39;11.38;;;2.70;;
65583;SDS011;62116;43.582;1.470;2023-05-07T08:53:04;6.68;;;2.35;;
65583;SDS011;62116;43.582;1.470;2023-05-07T08:55:30;11.15;;;2.47;;
65583;SDS011;62116;43.582;1.470;2023-05-07T08:57:56;8.98;;;2.42;;
65583;SDS011;62116;43.582;1.470;2023-05-07T09:00:22;10.55;;;2.63;;
65583;SDS011;62116;43.582;1.470;2023-05-07T09:02:47;9.90;;;2.20;;
65583;SDS011;62116;43.582;1.470;2023-05-07T09:05:13;11.45;;;2.67;;
65583;SDS011;62116;43.582;1.470;2023-05-07T09:07:39;11.18;;;2.75;;
65583;SDS011;62116;43.582;1.470;2023-05-07T09:10:04;8.68;;;2.17;;
65583;SDS011;62116;43.582;1.470;2023-05-07T09:12:31;10.57;;;2.42;;
65583;SDS011;62116;43.582;1.470;2023-05-07T09:14:56;13.65;;;2.92;;
65583;SDS011;62116;43.582;1.470;2023-05-07T09:17:22;12.82;;;2.65;;
65583;SDS011;62116;43.582;1.470;2023-05-07T09:19:49;8.90;;;2.33;;
65583;SDS011;62116;43.582;1.470;2023-05-07T09:22:15;14.43;;;2.95;;
65583;SDS011;62116;43.582;1.470;2023-05-07T09:24:41;8.60;;;2.70;;
65583;SDS011;62116;43.582;1.470;2023-05-07T09:27:12;12.43;;;2.50;;
65583;SDS011;62116;43.582;1.470;2023-05-07T09:29:38;16.33;;;2.38;;
65583;SDS011;62116;43.582;1.470;2023-05-07T09:32:04;7.00;;;2.22;;
65583;SDS011;62116;43.582;1.470;2023-05-07T09:34:31;8.50;;;2.10;;
65583;SDS011;62116;43.582;1.470;2023-05-07T09:37:06;11.93;;;2.33;;
65583;SDS011;62116;43.582;1.470;2023-05-07T09:39:41;11.27;;;2.40;;
65583;SDS011;62116;43.582;1.470;2023-05-07T09:42:08;8.63;;;2.40;;
65583;SDS011;62116;43.582;1.470;2023-05-07T09:44:34;11.77;;;2.55;;
65583;SDS011;62116;43.582;1.470;2023-05-07T09:47:00;11.13;;;2.58;;
65583;SDS011;62116;43.582;1.470;2023-05-07T09:49:30;14.68;;;2.85;;
65583;SDS011;62116;43.582;1.470;2023-05-07T09:52:00;10.93;;;2.50;;
65583;SDS011;62116;43.582;1.470;2023-05-07T09:54:26;11.98;;;2.60;;
65583;SDS011;62116;43.582;1.470;2023-05-07T09:56:56;10.80;;;2.40;;
65583;SDS011;62116;43.582;1.470;2023-05-07T09:59:22;11.20;;;2.55;;
65583;SDS011;62116;43.582;1.470;2023-05-07T10:01:47;12.45;;;2.72;;
65583;SDS011;62116;43.582;1.470;2023-05-07T10:04:14;11.55;;;2.80;;
65583;SDS011;62116;43.582;1.470;2023-05-07T10:06:40;11.32;;;2.70;;
65583;SDS011;62116;43.582;1.470;2023-05-07T10:09:07;8.02;;;2.22;;
65583;SDS011;62116;43.582;1.470;2023-05-07T10:11:35;8.95;;;2.70;;
65583;SDS011;62116;43.582;1.470;2023-05-07T10:14:01;12.82;;;2.72;;
65583;SDS011;62116;43.582;1.470;2023-05-07T10:16:29;13.45;;;3.20;;
65583;SDS011;62116;43.582;1.470;2023-05-07T10:19:04;10.68;;;2.47;;
65583;SDS011;62116;43.582;1.470;2023-05-07T10:21:30;9.98;;;2.53;;
65583;SDS011;62116;43.582;1.470;2023-05-07T10:24:20;9.98;;;2.47;;
65583;SDS011;62116;43.582;1.470;2023-05-07T10:26:50;10.73;;;2.33;;
65583;SDS011;62116;43.582;1.470;2023-05-07T10:34:40;11.57;;;2.72;;
65583;SDS011;62116;43.582;1.470;2023-05-07T10:37:09;12.05;;;2.83;;
65583;SDS011;62116;43.582;1.470;2023-05-07T10:39:35;14.13;;;2.60;;
65583;SDS011;62116;43.582;1.470;2023-05-07T10:42:07;11.18;;;2.78;;
65583;SDS011;62116;43.582;1.470;2023-05-07T10:44:33;12.55;;;2.85;;
65583;SDS011;62116;43.582;1.470;2023-05-07T10:47:07;10.32;;;2.72;;
65583;SDS011;62116;43.582;1.470;2023-05-07T10:49:38;8.10;;;2.50;;
65583;SDS011;62116;43.582;1.470;2023-05-07T10:52:31;11.05;;;2.60;;
65583;SDS011;62116;43.582;1.470;2023-05-07T10:57:40;11.65;;;2.72;;
65583;SDS011;62116;43.582;1.470;2023-05-07T11:05:24;11.73;;;2.83;;
65583;SDS011;62116;43.582;1.470;2023-05-07T11:07:59;15.38;;;3.28;;
65583;SDS011;62116;43.582;1.470;2023-05-07T11:13:14;11.32;;;3.03;;
65583;SDS011;62116;43.582;1.470;2023-05-07T11:15:41;12.27;;;2.72;;
65583;SDS011;62116;43.582;1.470;2023-05-07T11:18:09;10.18;;;2.70;;
65583;SDS011;62116;43.582;1.470;2023-05-07T11:20:51;12.65;;;2.45;;
65583;SDS011;62116;43.582;1.470;2023-05-07T11:26:03;8.82;;;2.63;;
65583;SDS011;62116;43.582;1.470;2023-05-07T11:28:28;11.98;;;2.70;;
65583;SDS011;62116;43.582;1.470;2023-05-07T11:30:55;10.77;;;2.80;;
65583;SDS011;62116;43.582;1.470;2023-05-07T11:33:22;13.82;;;2.60;;
65583;SDS011;62116;43.582;1.470;2023-05-07T11:35:47;11.43;;;2.45;;
65583;SDS011;62116;43.582;1.470;2023-05-07T11:38:13;9.23;;;2.58;;
65583;SDS011;62116;43.582;1.470;2023-05-07T11:40:48;10.05;;;2.28;;
65583;SDS011;62116;43.582;1.470;2023-05-07T11:43:16;8.18;;;2.53;;
65583;SDS011;62116;43.582;1.470;2023-05-07T11:45:42;7.00;;;2.30;;
65583;SDS011;62116;43.582;1.470;2023-05-07T11:48:08;11.90;;;2.40;;
65583;SDS011;62116;43.582;1.470;2023-05-07T11:50:33;10.02;;;2.35;;
65583;SDS011;62116;43.582;1.470;2023-05-07T11:52:58;11.02;;;2.10;;
65583;SDS011;62116;43.582;1.470;2023-05-07T11:55:24;9.40;;;2.20;;
65583;SDS011;62116;43.582;1.470;2023-05-07T11:57:51;9.00;;;2.20;;
65583;SDS011;62116;43.582;1.470;2023-05-07T12:00:16;9.60;;;2.20;;
65583;SDS011;62116;43.582;1.470;2023-05-07T12:02:42;11.30;;;2.60;;
65583;SDS011;62116;43.582;1.470;2023-05-07T12:05:08;10.38;;;2.35;;
65583;SDS011;62116;43.582;1.470;2023-05-07T12:07:34;10.57;;;1.92;;
65583;SDS011;62116;43.582;1.470;2023-05-07T12:10:03;8.77;;;2.30;;
65583;SDS011;62116;43.582;1.470;2023-05-07T12:12:30;10.35;;;2.45;;
65583;SDS011;62116;43.582;1.470;2023-05-07T12:14:55;8.90;;;2.35;;
65583;SDS011;62116;43.582;1.470;2023-05-07T12:17:20;11.05;;;2.10;;
65583;SDS011;62116;43.582;1.470;2023-05-07T12:19:46;8.52;;;1.92;;
65583;SDS011;62116;43.582;1.470;2023-05-07T12:22:12;7.43;;;2.05;;
65583;SDS011;62116;43.582;1.470;2023-05-07T12:24:44;7.90;;;2.30;;
65583;SDS011;62116;43.582;1.470;2023-05-07T12:27:14;10.07;;;2.38;;
65583;SDS011;62116;43.582;1.470;2023-05-07T12:29:43;12.00;;;2.20;;
65583;SDS011;62116;43.582;1.470;2023-05-07T12:32:15;15.27;;;2.15;;
65583;SDS011;62116;43.582;1.470;2023-05-07T12:34:44;7.68;;;2.00;;
65583;SDS011;62116;43.582;1.470;2023-05-07T12:37:10;9.70;;;2.10;;
65583;SDS011;62116;43.582;1.470;2023-05-07T12:39:37;7.50;;;2.15;;
65583;SDS011;62116;43.582;1.470;2023-05-07T12:42:03;8.57;;;1.80;;
65583;SDS011;62116;43.582;1.470;2023-05-07T12:44:29;9.80;;;2.05;;
65583;SDS011;62116;43.582;1.470;2023-05-07T12:46:55;9.25;;;2.05;;
65583;SDS011;62116;43.582;1.470;2023-05-07T12:49:21;7.63;;;1.70;;
65583;SDS011;62116;43.582;1.470;2023-05-07T12:51:47;8.52;;;2.25;;
65583;SDS011;62116;43.582;1.470;2023-05-07T12:54:13;7.25;;;1.98;;
65583;SDS011;62116;43.582;1.470;2023-05-07T12:56:59;9.23;;;2.13;;
65583;SDS011;62116;43.582;1.470;2023-05-07T12:59:36;9.23;;;2.13;;
65583;SDS011;62116;43.582;1.470;2023-05-07T13:02:03;9.52;;;2.15;;
65583;SDS011;62116;43.582;1.470;2023-05-07T13:04:29;8.95;;;1.98;;
65583;SDS011;62116;43.582;1.470;2023-05-07T13:06:54;11.80;;;2.10;;
65583;SDS011;62116;43.582;1.470;2023-05-07T13:09:20;6.30;;;2.00;;
65583;SDS011;62116;43.582;1.470;2023-05-07T13:11:45;12.52;;;2.28;;
65583;SDS011;62116;43.582;1.470;2023-05-07T13:14:11;10.50;;;1.77;;
65583;SDS011;62116;43.582;1.470;2023-05-07T13:16:37;6.05;;;1.77;;
65583;SDS011;62116;43.582;1.470;2023-05-07T13:19:03;8.48;;;1.90;;
65583;SDS011;62116;43.582;1.470;2023-05-07T13:21:28;7.68;;;1.77;;
65583;SDS011;62116;43.582;1.470;2023-05-07T13:23:56;9.00;;;1.80;;
65583;SDS011;62116;43.582;1.470;2023-05-07T13:26:23;9.85;;;1.70;;
65583;SDS011;62116;43.582;1.470;2023-05-07T13:28:48;6.88;;;1.90;;
65583;SDS011;62116;43.582;1.470;2023-05-07T13:31:14;4.85;;;1.50;;
65583;SDS011;62116;43.582;1.470;2023-05-07T13:33:39;6.93;;;1.70;;
65583;SDS011;62116;43.582;1.470;2023-05-07T13:36:05;7.55;;;1.90;;
65583;SDS011;62116;43.582;1.470;2023-05-07T13:38:30;7.05;;;1.73;;
65583;SDS011;62116;43.582;1.470;2023-05-07T13:40:56;8.25;;;1.77;;
65583;SDS011;62116;43.582;1.470;2023-05-07T13:43:21;8.55;;;1.73;;
65583;SDS011;62116;43.582;1.470;2023-05-07T13:45:47;7.13;;;1.70;;
65583;SDS011;62116;43.582;1.470;2023-05-07T13:48:12;5.55;;;1.70;;
65583;SDS011;62116;43.582;1.470;2023-05-07T13:50:37;7.15;;;1.80;;
65583;SDS011;62116;43.582;1.470;2023-05-07T13:53:03;10.80;;;2.05;;
65583;SDS011;62116;43.582;1.470;2023-05-07T13:55:29;10.35;;;2.33;;
65583;SDS011;62116;43.582;1.470;2023-05-07T13:57:55;8.73;;;1.85;;
65583;SDS011;62116;43.582;1.470;2023-05-07T14:00:22;6.25;;;1.77;;
65583;SDS011;62116;43.582;1.470;2023-05-07T14:02:48;9.30;;;1.88;;
65583;SDS011;62116;43.582;1.470;2023-05-07T14:05:13;7.97;;;1.80;;
65583;SDS011;62116;43.582;1.470;2023-05-07T14:07:39;8.85;;;2.10;;
65583;SDS011;62116;43.582;1.470;2023-05-07T14:10:05;6.78;;;1.65;;
65583;SDS011;62116;43.582;1.470;2023-05-07T14:12:31;11.20;;;1.98;;
65583;SDS011;62116;43.582;1.470;2023-05-07T14:14:57;7.80;;;1.80;;
65583;SDS011;62116;43.582;1.470;2023-05-07T14:17:23;12.80;;;1.73;;
65583;SDS011;62116;43.582;1.470;2023-05-07T14:19:50;6.00;;;1.58;;
65583;SDS011;62116;43.582;1.470;2023-05-07T14:22:15;9.65;;;2.03;;
65583;SDS011;62116;43.582;1.470;2023-05-07T14:24:41;8.48;;;1.70;;
65583;SDS011;62116;43.582;1.470;2023-05-07T14:27:06;5.57;;;1.80;;
65583;SDS011;62116;43.582;1.470;2023-05-07T14:29:32;6.55;;;1.75;;
65583;SDS011;62116;43.582;1.470;2023-05-07T14:31:57;7.03;;;1.65;;
65583;SDS011;62116;43.582;1.470;2023-05-07T14:34:23;12.38;;;1.92;;
65583;SDS011;62116;43.582;1.470;2023-05-07T14:36:48;5.65;;;1.58;;
65583;SDS011;62116;43.582;1.470;2023-05-07T14:39:14;5.97;;;1.85;;
65583;SDS011;62116;43.582;1.470;2023-05-07T14:41:39;7.35;;;1.50;;
65583;SDS011;62116;43.582;1.470;2023-05-07T14:44:05;5.68;;;1.80;;
65583;SDS011;62116;43.582;1.470;2023-05-07T14:46:30;7.65;;;1.77;;
65583;SDS011;62116;43.582;1.470;2023-05-07T14:48:58;6.97;;;1.70;;
65583;SDS011;62116;43.582;1.470;2023-05-07T14:51:24;6.88;;;1.60;;
65583;SDS011;62116;43.582;1.470;2023-05-07T14:53:52;6.68;;;1.60;;